createdAt,value
2022-09-07T00:01:49.521Z,98393.72
2022-09-07T00:03:57.239Z,98387.69
2022-09-07T00:05:59.167Z,98398.31
2022-09-07T00:08:01.277Z,98392.28
2022-09-07T00:10:04.662Z,98395.06
2022-09-07T00:12:06.164Z,98397.38
2022-09-07T00:14:08.109Z,98403.59
2022-09-07T00:16:18.880Z,98400.34
2022-09-07T00:18:21.126Z,98403.47
2022-09-07T00:20:23.264Z,98410.53
2022-09-07T00:22:24.954Z,98407.75
2022-09-07T00:24:27.837Z,98413.97
2022-09-07T00:26:30.818Z,98415.91
2022-09-07T00:28:32.657Z,98415.91
2022-09-07T00:30:35.210Z,98411.19
2022-09-07T00:32:36.763Z,98417.41
2022-09-07T00:34:38.383Z,98421.31
2022-09-07T00:36:40.144Z,98414.97
2022-09-07T00:38:41.840Z,98412.19
2022-09-07T00:40:43.471Z,98411.38
2022-09-07T00:42:44.961Z,98411.69
2022-09-07T00:45:06.765Z,98413.69
2022-09-07T00:47:28.578Z,98411.56
2022-09-07T00:49:32.464Z,98415.47
2022-09-07T00:51:48.278Z,98416.31
2022-09-07T00:53:55.940Z,98413.88
2022-09-07T00:56:01.345Z,98412.22
2022-09-07T00:58:03.789Z,98411.75
2022-09-07T01:00:06.037Z,98412.88
2022-09-07T01:02:08.243Z,98409.28
2022-09-07T01:04:10.266Z,98406.03
2022-09-07T01:06:17.168Z,98411.13
2022-09-07T01:08:18.968Z,98413.91
2022-09-07T01:10:23.825Z,98411.13
2022-09-07T01:12:25.401Z,98415.84
2022-09-07T01:14:33.652Z,98407.38
2022-09-07T01:16:37.942Z,98406.88
2022-09-07T01:19:06.118Z,98404.44
2022-09-07T01:21:47.353Z,98404.75
2022-09-07T01:24:27.088Z,98399.03
2022-09-07T01:26:59.025Z,98402.97
2022-09-07T01:29:29.818Z,98411.97
2022-09-07T01:31:45.549Z,98412.31
2022-09-07T01:34:10.149Z,98405.91
2022-09-07T01:36:33.118Z,98406.25
2022-09-07T01:38:44.488Z,98402.19
2022-09-07T01:41:04.669Z,98407.28
2022-09-07T01:43:19.313Z,98407.59
2022-09-07T01:45:28.961Z,98398.78
2022-09-07T01:47:40.454Z,98403.50
2022-09-07T01:49:59.697Z,98393.09
2022-09-07T01:52:09.032Z,98385.88
2022-09-07T01:54:24.155Z,98398.00
2022-09-07T01:56:48.132Z,98387.19
2022-09-07T01:58:57.675Z,98389.84
2022-09-07T02:01:06.068Z,98380.22
2022-09-07T02:03:14.837Z,98388.06
2022-09-07T02:05:58.584Z,98387.56
2022-09-07T02:08:12.003Z,98382.69
2022-09-07T02:10:22.492Z,98384.97
2022-09-07T02:12:53.046Z,98385.97
2022-09-07T02:15:02.457Z,98383.03
2022-09-07T02:17:22.436Z,98390.06
2022-09-07T02:19:27.433Z,98385.47
2022-09-07T02:21:38.405Z,98388.13
2022-09-07T02:23:51.279Z,98378.16
2022-09-07T02:26:16.961Z,98381.91
2022-09-07T02:28:23.734Z,98388.94
2022-09-07T02:30:25.353Z,98385.34
2022-09-07T02:32:26.939Z,98395.97
2022-09-07T02:34:31.657Z,98401.81
2022-09-07T02:36:40.705Z,98404.09
2022-09-07T02:38:42.217Z,98401.66
2022-09-07T02:40:44.068Z,98410.28
2022-09-07T02:42:48.175Z,98411.75
2022-09-07T02:44:54.781Z,98419.78
2022-09-07T02:47:08.384Z,98415.69
2022-09-07T02:49:12.662Z,98413.75
2022-09-07T02:51:20.025Z,98418.00
2022-09-07T02:53:31.079Z,98418.00
2022-09-07T02:55:43.194Z,98417.16
2022-09-07T02:58:16.498Z,98429.75
2022-09-07T03:00:26.219Z,98427.28
2022-09-07T03:02:58.319Z,98423.72
2022-09-07T03:05:16.769Z,98423.19
2022-09-07T03:07:24.219Z,98414.88
2022-09-07T03:09:29.181Z,98401.81
2022-09-07T03:11:30.936Z,98396.63
2022-09-07T03:13:36.273Z,98399.38
2022-09-07T03:15:37.930Z,98409.66
2022-09-07T03:17:40.749Z,98408.84
2022-09-07T03:19:42.421Z,98405.59
2022-09-07T03:21:44.414Z,98411.13
2022-09-07T03:23:49.919Z,98405.59
2022-09-07T03:25:53.349Z,98404.28
2022-09-07T03:27:57.914Z,98409.81
2022-09-07T03:30:00.031Z,98406.56
2022-09-07T03:32:01.629Z,98402.97
2022-09-07T03:34:03.810Z,98395.47
2022-09-07T03:36:07.850Z,98391.38
2022-09-07T03:38:11.160Z,98403.31
2022-09-07T03:40:14.293Z,98400.53
2022-09-07T03:42:15.910Z,98399.72
2022-09-07T03:44:17.503Z,98390.91
2022-09-07T03:46:19.563Z,98393.34
2022-09-07T03:48:21.252Z,98391.38
2022-09-07T03:50:22.899Z,98402.00
2022-09-07T03:52:24.432Z,98405.91
2022-09-07T03:54:26.302Z,98400.38
2022-09-07T03:56:29.164Z,98409.81
2022-09-07T03:58:33.136Z,98400.38
2022-09-07T04:00:35.812Z,98394.81
2022-09-07T04:02:37.391Z,98394.81
2022-09-07T04:04:39.197Z,98390.09
2022-09-07T04:06:40.951Z,98388.78
2022-09-07T04:08:43.636Z,98375.72
2022-09-07T04:10:45.227Z,98380.47
2022-09-07T04:12:46.941Z,98374.91
2022-09-07T04:14:51.283Z,98372.97
2022-09-07T04:16:52.980Z,98383.22
2022-09-07T04:18:54.866Z,98386.00
2022-09-07T04:20:58.663Z,98391.56
2022-09-07T04:23:00.180Z,98387.97
2022-09-07T04:25:04.213Z,98394.34
2022-09-07T04:27:05.636Z,98397.41
2022-09-07T04:29:07.300Z,98413.56
2022-09-07T04:31:09.304Z,98412.44
2022-09-07T04:33:11.515Z,98419.47
2022-09-07T04:35:13.546Z,98437.22
2022-09-07T04:37:15.033Z,98436.59
2022-09-07T04:39:16.740Z,98434.94
2022-09-07T04:41:19.446Z,98429.38
2022-09-07T04:43:21.028Z,98422.22
2022-09-07T04:45:22.646Z,98423.84
2022-09-07T04:47:24.271Z,98411.97
2022-09-07T04:49:25.946Z,98418.28
2022-09-07T04:51:29.747Z,98408.84
2022-09-07T04:53:31.731Z,98398.88
2022-09-07T04:55:33.390Z,98411.13
2022-09-07T04:57:35.020Z,98409.97
2022-09-07T04:59:36.563Z,98421.59
2022-09-07T05:01:38.338Z,98412.44
2022-09-07T05:03:43.166Z,98418.13
2022-09-07T05:05:45.141Z,98415.69
2022-09-07T05:07:46.958Z,98420.13
2022-09-07T05:09:48.714Z,98413.75
2022-09-07T05:11:50.384Z,98428.09
2022-09-07T05:13:52.113Z,98426.16
2022-09-07T05:15:53.877Z,98425.00
2022-09-07T05:17:55.913Z,98430.53
2022-09-07T05:20:02.328Z,98431.06
2022-09-07T05:22:04.044Z,98434.63
2022-09-07T05:24:07.172Z,98429.91
2022-09-07T05:26:10.668Z,98424.69
2022-09-07T05:28:19.534Z,98420.44
2022-09-07T05:32:45.622Z,98403.31
2022-09-07T05:34:49.663Z,98406.09
2022-09-07T05:36:52.534Z,98425.16
2022-09-07T05:38:58.110Z,98415.03
2022-09-07T05:40:59.876Z,98411.94
2022-09-07T05:43:05.571Z,98413.25
2022-09-07T05:45:07.744Z,98412.09
2022-09-07T05:47:09.367Z,98413.75
2022-09-07T05:49:11.102Z,98401.66
2022-09-07T05:51:16.225Z,98397.41
2022-09-07T05:53:21.464Z,98400.66
2022-09-07T05:55:32.188Z,98398.06
2022-09-07T05:57:36.372Z,98398.88
2022-09-07T05:59:38.464Z,98402.66
2022-09-07T06:01:40.053Z,98403.13
2022-09-07T06:03:45.564Z,98408.03
2022-09-07T06:05:47.084Z,98397.44
2022-09-07T06:07:48.714Z,98402.81
2022-09-07T06:12:22.378Z,98400.66
2022-09-07T06:14:23.915Z,98394.94
2022-09-07T06:16:28.618Z,98396.25
2022-09-07T06:18:31.988Z,98389.38
2022-09-07T06:20:33.696Z,98392.63
2022-09-07T06:22:38.380Z,98388.38
2022-09-07T06:24:40.013Z,98399.97
2022-09-07T06:26:41.721Z,98396.22
2022-09-07T06:28:48.962Z,98398.31
2022-09-07T06:30:51.261Z,98397.66
2022-09-07T06:32:52.947Z,98404.19
2022-09-07T06:34:54.543Z,98402.72
2022-09-07T06:36:56.634Z,98409.06
2022-09-07T06:39:03.365Z,98402.84
2022-09-07T06:43:33.275Z,98400.22
2022-09-07T06:45:42.769Z,98405.44
2022-09-07T06:47:45.488Z,98397.59
2022-09-07T06:49:47.440Z,98396.94
2022-09-07T06:51:49.614Z,98399.03
2022-09-07T06:56:19.284Z,98406.56
2022-09-07T06:58:24.897Z,98416.19
2022-09-07T07:00:26.660Z,98409.16
2022-09-07T07:02:28.253Z,98398.16
2022-09-07T07:04:30.018Z,98409.44
2022-09-07T07:06:40.633Z,98413.19
2022-09-07T07:08:44.523Z,98410.72
2022-09-07T07:10:46.411Z,98414.44
2022-09-07T07:12:47.930Z,98414.25
2022-09-07T07:14:49.781Z,98408.50
2022-09-07T07:16:56.775Z,98423.97
2022-09-07T07:18:58.470Z,98417.34
2022-09-07T07:21:11.696Z,98419.91
2022-09-07T07:23:13.500Z,98420.47
2022-09-07T07:25:15.294Z,98416.94
2022-09-07T07:27:17.547Z,98420.09
2022-09-07T07:29:19.176Z,98418.53
2022-09-07T07:31:23.643Z,98428.44
2022-09-07T07:33:30.504Z,98429.34
2022-09-07T07:35:35.430Z,98441.81
2022-09-07T07:37:37.282Z,98437.59
2022-09-07T07:42:03.104Z,98444.38
2022-09-07T07:44:06.674Z,98448.13
2022-09-07T07:46:16.216Z,98449.09
2022-09-07T07:48:17.748Z,98453.50
2022-09-07T07:50:37.260Z,98459.19
2022-09-07T07:52:50.480Z,98460.13
2022-09-07T07:54:52.433Z,98455.44
2022-09-07T07:56:54.051Z,98453.06
2022-09-07T07:58:55.804Z,98446.75
2022-09-07T08:01:06.061Z,98440.75
2022-09-07T08:03:07.666Z,98453.19
2022-09-07T08:05:12.024Z,98442.75
2022-09-07T08:07:19.763Z,98448.75
2022-09-07T08:09:21.402Z,98449.50
2022-09-07T08:11:25.224Z,98447.09
2022-09-07T08:13:33.861Z,98445.47
2022-09-07T08:15:47.534Z,98458.63
2022-09-07T08:17:50.327Z,98462.97
2022-09-07T08:19:52.491Z,98462.50
2022-09-07T08:21:54.241Z,98452.88
2022-09-07T08:23:55.841Z,98455.16
2022-09-07T08:25:58.951Z,98463.44
2022-09-07T08:28:04.588Z,98460.16
2022-09-07T08:30:10.618Z,98465.25
2022-09-07T08:32:12.316Z,98467.56
2022-09-07T08:34:13.936Z,98464.25
2022-09-07T08:36:20.587Z,98468.53
2022-09-07T08:38:22.337Z,98474.41
2022-09-07T08:40:24.010Z,98470.72
2022-09-07T08:43:00.875Z,98474.22
2022-09-07T08:45:17.510Z,98470.91
2022-09-07T08:47:35.112Z,98474.41
2022-09-07T08:50:15.472Z,98468.66
2022-09-07T08:52:25.868Z,98471.75
2022-09-07T08:54:29.569Z,98464.72
2022-09-07T08:56:35.687Z,98470.59
2022-09-07T08:58:53.399Z,98466.38
2022-09-07T09:01:30.797Z,98471.00
2022-09-07T09:03:33.054Z,98475.16
2022-09-07T09:06:00.271Z,98470.56
2022-09-07T09:08:15.126Z,98468.72
2022-09-07T09:10:23.176Z,98467.69
2022-09-07T09:12:38.063Z,98464.19
2022-09-07T09:15:03.078Z,98457.94
2022-09-07T09:17:30.735Z,98460.91
2022-09-07T09:19:39.088Z,98459.38
2022-09-07T09:21:43.029Z,98450.19
2022-09-07T09:23:48.435Z,98453.91
2022-09-07T09:25:55.789Z,98458.84
2022-09-07T09:28:03.870Z,98446.84
2022-09-07T09:30:18.086Z,98443.69
2022-09-07T09:32:45.045Z,98443.72
2022-09-07T09:35:19.574Z,98450.19
2022-09-07T09:37:33.886Z,98441.34
2022-09-07T09:39:37.753Z,98447.41
2022-09-07T09:41:39.381Z,98448.59
2022-09-07T09:43:55.301Z,98441.34
2022-09-07T09:46:16.926Z,98449.41
2022-09-07T09:48:26.770Z,98446.59
2022-09-07T09:53:01.006Z,98444.66
2022-09-07T09:55:33.310Z,98443.06
2022-09-07T10:00:29.289Z,98442.31
2022-09-07T10:05:03.601Z,98446.88
2022-09-07T10:07:22.404Z,98430.41
2022-09-07T10:09:37.579Z,98431.63
2022-09-07T10:14:26.652Z,98434.88
2022-09-07T10:16:42.390Z,98424.78
2022-09-07T10:18:58.452Z,98428.03
2022-09-07T10:21:24.748Z,98425.22
2022-09-07T10:23:27.454Z,98423.97
2022-09-07T10:25:37.854Z,98428.44
2022-09-07T10:27:40.745Z,98420.38
2022-09-07T10:29:42.790Z,98422.78
2022-09-07T10:31:57.862Z,98425.25
2022-09-07T10:34:26.647Z,98415.16
2022-09-07T10:36:57.237Z,98414.34
2022-09-07T10:39:06.328Z,98410.31
2022-09-07T10:41:11.540Z,98409.50
2022-09-07T10:43:22.377Z,98409.50
2022-09-07T10:45:28.808Z,98412.72
2022-09-07T10:48:04.118Z,98409.88
2022-09-07T10:50:32.495Z,98411.91
2022-09-07T10:52:52.330Z,98407.06
2022-09-07T10:55:00.924Z,98413.53
2022-09-07T10:57:09.383Z,98411.13
2022-09-07T10:59:26.533Z,98403.44
2022-09-07T11:01:57.654Z,98397.78
2022-09-07T11:04:28.194Z,98399.00
2022-09-07T11:06:37.551Z,98393.34
2022-09-07T11:09:22.114Z,98394.13
2022-09-07T11:14:16.184Z,98386.81
2022-09-07T11:19:34.950Z,98389.16
2022-09-07T11:21:56.059Z,98384.72
2022-09-07T11:23:58.353Z,98373.78
2022-09-07T11:26:18.320Z,98364.91
2022-09-07T11:28:43.990Z,98369.31
2022-09-07T11:30:53.793Z,98366.03
2022-09-07T11:33:04.329Z,98360.28
2022-09-07T11:35:19.262Z,98358.66
2022-09-07T11:37:29.980Z,98352.53
2022-09-07T11:39:41.373Z,98359.38
2022-09-07T11:41:54.076Z,98362.97
2022-09-07T11:44:05.939Z,98360.50
2022-09-07T11:46:23.531Z,98358.06
2022-09-07T11:48:36.765Z,98363.28
2022-09-07T11:50:48.918Z,98355.16
2022-09-07T11:53:06.725Z,98351.03
2022-09-07T11:55:25.687Z,98346.94
2022-09-07T11:57:37.023Z,98340.03
2022-09-07T12:00:11.525Z,98331.00
2022-09-07T12:02:58.320Z,98324.47
2022-09-07T12:05:23.143Z,98331.63
2022-09-07T12:07:35.395Z,98323.88
2022-09-07T12:10:23.143Z,98317.72
2022-09-07T12:12:50.792Z,98315.63
2022-09-07T12:15:09.907Z,98312.72
2022-09-07T12:17:23.731Z,98315.88
2022-09-07T12:19:27.854Z,98319.44
2022-09-07T12:21:41.711Z,98308.81
2022-09-07T12:23:46.343Z,98313.66
2022-09-07T12:25:49.519Z,98315.69
2022-09-07T12:27:52.710Z,98320.19
2022-09-07T12:29:57.175Z,98312.50
2022-09-07T12:32:53.505Z,98310.94
2022-09-07T12:34:32.434Z,98302.88
2022-09-07T12:36:34.000Z,98286.63
2022-09-07T12:39:08.933Z,98293.56
2022-09-07T12:41:24.618Z,98295.56
2022-09-07T12:43:44.558Z,98291.13
2022-09-07T12:45:46.325Z,98294.38
2022-09-07T12:47:57.241Z,98289.47
2022-09-07T12:50:29.441Z,98292.31
2022-09-07T12:52:39.896Z,98287.81
2022-09-07T12:55:27.108Z,98289.06
2022-09-07T12:57:42.064Z,98291.47
2022-09-07T12:59:54.602Z,98281.72
2022-09-07T13:02:35.588Z,98278.47
2022-09-07T13:04:50.318Z,98278.44
2022-09-07T13:07:13.815Z,98272.69
2022-09-07T13:09:31.315Z,98276.66
2022-09-07T13:11:40.877Z,98278.22
2022-09-07T13:14:10.761Z,98275.34
2022-09-07T13:16:15.487Z,98277.72
2022-09-07T13:18:26.056Z,98284.59
2022-09-07T13:20:36.092Z,98275.59
2022-09-07T13:22:40.938Z,98264.19
2022-09-07T13:24:52.711Z,98257.22
2022-09-07T13:27:01.941Z,98261.63
2022-09-07T13:29:13.878Z,98266.81
2022-09-07T13:31:42.486Z,98254.59
2022-09-07T13:33:51.830Z,98243.97
2022-09-07T13:36:09.233Z,98246.41
2022-09-07T13:38:12.355Z,98234.97
2022-09-07T13:40:18.777Z,98243.06
2022-09-07T13:42:29.083Z,98246.69
2022-09-07T13:44:33.403Z,98244.25
2022-09-07T13:46:45.687Z,98245.09
2022-09-07T13:48:56.144Z,98243.94
2022-09-07T13:51:13.241Z,98243.13
2022-09-07T13:53:52.469Z,98242.38
2022-09-07T13:56:09.285Z,98247.66
2022-09-07T13:58:18.105Z,98238.41
2022-09-07T14:00:20.253Z,98231.56
2022-09-07T14:02:29.804Z,98241.78
2022-09-07T14:04:38.724Z,98242.28
2022-09-07T14:06:40.329Z,98245.19
2022-09-07T14:08:47.363Z,98237.16
2022-09-07T14:10:49.020Z,98229.47
2022-09-07T14:12:53.969Z,98227.91
2022-09-07T14:15:18.243Z,98226.41
2022-09-07T14:17:22.819Z,98226.44
2022-09-07T14:19:37.983Z,98233.84
2022-09-07T14:21:40.121Z,98235.50
2022-09-07T14:23:41.815Z,98225.78
2022-09-07T14:28:32.160Z,98234.78
2022-09-07T14:30:36.975Z,98224.66
2022-09-07T14:32:39.023Z,98223.03
2022-09-07T14:34:44.584Z,98229.97
2022-09-07T14:36:54.806Z,98217.81
2022-09-07T14:39:05.389Z,98215.00
2022-09-07T14:41:11.750Z,98203.28
2022-09-07T14:43:29.926Z,98207.41
2022-09-07T14:45:33.729Z,98209.06
2022-09-07T14:47:35.448Z,98199.34
2022-09-07T14:49:39.895Z,98200.63
2022-09-07T14:51:44.317Z,98194.97
2022-09-07T14:53:50.976Z,98194.63
2022-09-07T14:56:02.117Z,98195.91
2022-09-07T14:58:16.023Z,98194.00
2022-09-07T15:00:30.625Z,98194.88
2022-09-07T15:02:37.534Z,98189.25
2022-09-07T15:04:39.411Z,98184.06
2022-09-07T15:09:07.206Z,98182.97
2022-09-07T15:11:33.164Z,98183.78
2022-09-07T15:13:39.268Z,98181.03
2022-09-07T15:15:40.992Z,98179.06
2022-09-07T15:17:43.393Z,98175.91
2022-09-07T15:19:45.583Z,98177.97
2022-09-07T15:21:49.998Z,98171.19
2022-09-07T15:23:53.980Z,98175.25
2022-09-07T15:25:58.544Z,98170.47
2022-09-07T15:28:00.402Z,98164.84
2022-09-07T15:30:01.952Z,98171.34
2022-09-07T15:32:08.969Z,98167.34
2022-09-07T15:34:12.999Z,98152.84
2022-09-07T15:36:20.649Z,98161.00
2022-09-07T15:41:18.533Z,98157.06
2022-09-07T15:43:20.654Z,98155.06
2022-09-07T15:45:26.721Z,98156.75
2022-09-07T15:47:47.493Z,98163.59
2022-09-07T15:49:51.391Z,98155.97
2022-09-07T15:52:08.666Z,98153.59
2022-09-07T15:54:13.213Z,98146.75
2022-09-07T15:56:17.290Z,98152.47
2022-09-07T15:58:22.009Z,98149.69
2022-09-07T16:00:23.714Z,98158.19
2022-09-07T16:04:54.930Z,98152.97
2022-09-07T16:06:56.491Z,98152.22
2022-09-07T16:08:58.055Z,98146.19
2022-09-07T16:11:11.280Z,98145.81
2022-09-07T16:13:17.861Z,98141.41
2022-09-07T16:15:21.913Z,98141.81
2022-09-07T16:17:27.278Z,98142.25
2022-09-07T16:19:41.118Z,98136.66
2022-09-07T16:21:43.079Z,98143.94
2022-09-07T16:23:50.445Z,98143.13
2022-09-07T16:26:04.164Z,98145.56
2022-09-07T16:28:07.088Z,98149.63
2022-09-07T16:30:08.996Z,98144.38
2022-09-07T16:34:32.915Z,98136.78
2022-09-07T16:36:34.508Z,98141.66
2022-09-07T16:38:44.497Z,98142.06
2022-09-07T16:40:46.615Z,98136.00
2022-09-07T16:42:49.755Z,98138.41
2022-09-07T16:44:52.991Z,98129.53
2022-09-07T16:46:54.990Z,98138.84
2022-09-07T16:48:57.132Z,98137.63
2022-09-07T16:51:01.987Z,98130.78
2022-09-07T16:53:13.343Z,98125.16
2022-09-07T16:55:15.458Z,98127.19
2022-09-07T16:57:17.876Z,98126.34
2022-09-07T16:59:24.363Z,98129.59
2022-09-07T17:01:28.898Z,98125.56
2022-09-07T17:03:37.172Z,98122.72
2022-09-07T17:05:43.048Z,98134.41
2022-09-07T17:07:44.593Z,98123.91
2022-09-07T17:09:49.353Z,98123.91
2022-09-07T17:11:51.165Z,98129.56
2022-09-07T17:13:54.037Z,98112.63
2022-09-07T17:16:02.218Z,98119.06
2022-09-07T17:18:04.100Z,98116.66
2022-09-07T17:20:06.521Z,98115.03
2022-09-07T17:22:10.630Z,98123.06
2022-09-07T17:24:15.004Z,98122.25
2022-09-07T17:26:18.946Z,98128.25
2022-09-07T17:28:20.912Z,98119.78
2022-09-07T17:30:24.756Z,98110.91
2022-09-07T17:32:28.660Z,98111.72
2022-09-07T17:34:32.145Z,98109.28
2022-09-07T17:36:34.419Z,98110.06
2022-09-07T17:41:12.993Z,98112.03
2022-09-07T17:45:36.795Z,98102.75
2022-09-07T17:47:38.774Z,98104.31
2022-09-07T17:49:40.465Z,98110.28
2022-09-07T17:51:42.464Z,98106.69
2022-09-07T17:53:45.751Z,98115.88
2022-09-07T17:55:47.750Z,98125.09
2022-09-07T17:57:49.579Z,98130.28
2022-09-07T18:02:13.776Z,98144.66
2022-09-07T18:04:15.504Z,98145.03
2022-09-07T18:06:17.776Z,98141.34
2022-09-07T18:08:19.422Z,98145.34
2022-09-07T18:10:21.699Z,98145.31
2022-09-07T18:12:23.979Z,98141.28
2022-09-07T18:14:25.718Z,98147.25
2022-09-07T18:16:33.694Z,98153.63
2022-09-07T18:18:35.403Z,98158.78
2022-09-07T18:20:37.004Z,98159.13
2022-09-07T18:22:38.767Z,98167.94
2022-09-07T18:24:40.623Z,98167.88
2022-09-07T18:26:42.862Z,98159.34
2022-09-07T18:31:11.816Z,98164.41
2022-09-07T18:33:13.474Z,98165.97
2022-09-07T18:35:15.129Z,98173.09
2022-09-07T18:37:16.902Z,98162.16
2022-09-07T18:39:18.677Z,98168.53
2022-09-07T18:41:21.148Z,98176.88
2022-09-07T18:43:22.778Z,98170.34
2022-09-07T18:45:27.798Z,98166.25
2022-09-07T18:47:29.883Z,98158.13
2022-09-07T18:49:31.596Z,98164.09
2022-09-07T18:52:51.578Z,98164.34
2022-09-07T18:53:55.518Z,98175.88
2022-09-07T18:56:10.628Z,98172.16
2022-09-07T18:58:13.163Z,98176.84
2022-09-07T19:00:15.013Z,98184.00
2022-09-07T19:02:19.198Z,98184.28
2022-09-07T19:04:21.377Z,98188.19
2022-09-07T19:06:25.031Z,98200.88
2022-09-07T19:08:30.332Z,98195.56
2022-09-07T19:10:36.527Z,98186.66
2022-09-07T19:12:40.635Z,98192.16
2022-09-07T19:14:44.221Z,98180.81
2022-09-07T19:16:45.915Z,98192.72
2022-09-07T19:18:47.423Z,98198.66
2022-09-07T19:20:49.101Z,98192.50
2022-09-07T19:22:50.716Z,98187.59
2022-09-07T19:24:52.182Z,98193.13
2022-09-07T19:26:59.515Z,98182.22
2022-09-07T19:29:15.355Z,98185.72
2022-09-07T19:31:20.788Z,98193.63
2022-09-07T19:33:22.966Z,98180.34
2022-09-07T19:35:24.576Z,98188.25
2022-09-07T19:37:27.522Z,98187.00
2022-09-07T19:39:29.255Z,98186.53
2022-09-07T19:41:31.604Z,98178.88
2022-09-07T19:43:34.345Z,98167.59
2022-09-07T19:45:40.614Z,98163.91
2022-09-07T19:47:42.544Z,98165.78
2022-09-07T19:49:44.268Z,98165.75
2022-09-07T19:51:46.541Z,98164.84
2022-09-07T19:53:48.089Z,98171.56
2022-09-07T19:55:50.853Z,98173.50
2022-09-07T19:57:52.397Z,98171.81
2022-09-07T19:59:56.684Z,98169.31
2022-09-07T20:01:58.265Z,98161.19
2022-09-07T20:04:03.323Z,98160.31
2022-09-07T20:06:09.962Z,98161.41
2022-09-07T20:08:12.645Z,98162.16
2022-09-07T20:10:14.396Z,98165.25
2022-09-07T20:12:17.750Z,98167.16
2022-09-07T20:14:19.952Z,98159.06
2022-09-07T20:16:21.726Z,98164.94
2022-09-07T20:18:25.166Z,98169.59
2022-09-07T20:20:26.836Z,98158.72
2022-09-07T20:22:28.981Z,98148.19
2022-09-07T20:24:35.410Z,98151.72
2022-09-07T20:26:37.213Z,98149.19
2022-09-07T20:28:39.775Z,98147.50
2022-09-07T20:30:44.458Z,98155.00
2022-09-07T20:32:45.829Z,98161.34
2022-09-07T20:34:47.283Z,98165.19
2022-09-07T20:36:49.953Z,98165.13
2022-09-07T20:38:53.854Z,98168.22
2022-09-07T20:41:00.862Z,98169.31
2022-09-07T20:43:04.814Z,98161.97
2022-09-07T20:45:10.043Z,98163.06
2022-09-07T20:47:11.763Z,98151.00
2022-09-07T20:49:13.312Z,98152.09
2022-09-07T20:51:20.883Z,98140.81
2022-09-07T20:53:22.827Z,98155.06
2022-09-07T20:55:24.821Z,98152.63
2022-09-07T20:57:26.339Z,98150.91
2022-09-07T20:59:28.031Z,98150.47
2022-09-07T21:01:31.660Z,98142.00
2022-09-07T21:03:33.351Z,98151.09
2022-09-07T21:05:38.821Z,98142.63
2022-09-07T21:07:41.314Z,98141.34
2022-09-07T21:09:42.774Z,98144.53
2022-09-07T21:11:49.000Z,98137.69
2022-09-07T21:14:01.955Z,98136.75
2022-09-07T21:16:09.448Z,98136.31
2022-09-07T21:18:20.181Z,98127.50
2022-09-07T21:20:21.818Z,98123.78
2022-09-07T21:22:25.233Z,98121.72
2022-09-07T21:24:27.080Z,98118.84
2022-09-07T21:26:32.691Z,98120.00
2022-09-07T21:28:39.471Z,98114.34
2022-09-07T21:30:41.170Z,98122.28
2022-09-07T21:32:42.940Z,98130.16
2022-09-07T21:34:44.450Z,98120.88
2022-09-07T21:36:48.342Z,98116.00
2022-09-07T21:38:50.135Z,98118.78
2022-09-07T21:40:54.071Z,98112.41
2022-09-07T21:42:55.532Z,98116.72
2022-09-07T21:44:56.993Z,98108.25
2022-09-07T21:46:58.616Z,98101.06
2022-09-07T21:49:00.610Z,98096.19
2022-09-07T21:51:03.077Z,98101.31
2022-09-07T21:53:04.593Z,98101.25
2022-09-07T21:55:06.809Z,98097.97
2022-09-07T21:57:08.852Z,98101.94
2022-09-07T21:59:10.894Z,98109.06
2022-09-07T22:01:19.658Z,98111.41
2022-09-07T22:03:26.422Z,98111.75
2022-09-07T22:05:28.240Z,98107.34
2022-09-07T22:07:29.716Z,98102.91
2022-09-07T22:09:31.485Z,98108.06
2022-09-07T22:11:33.397Z,98105.25
2022-09-07T22:13:35.226Z,98104.81
2022-09-07T22:15:39.003Z,98104.81
2022-09-07T22:17:46.181Z,98100.38
2022-09-07T22:19:51.047Z,98094.81
2022-09-07T22:21:53.722Z,98097.97
2022-09-07T22:23:58.439Z,98099.50
2022-09-07T22:26:00.435Z,98101.81
2022-09-07T22:28:02.107Z,98108.56
2022-09-07T22:30:04.472Z,98102.53
2022-09-07T22:32:07.298Z,98107.31
2022-09-07T22:34:11.509Z,98102.06
2022-09-07T22:36:18.024Z,98101.63
2022-09-07T22:38:19.655Z,98100.78
2022-09-07T22:40:21.215Z,98091.16
2022-09-07T22:42:22.884Z,98091.16
2022-09-07T22:44:26.800Z,98088.38
2022-09-07T22:46:33.453Z,98081.19
2022-09-07T22:48:35.430Z,98079.56
2022-09-07T22:50:37.183Z,98070.38
2022-09-07T22:52:38.930Z,98063.19
2022-09-07T22:54:40.494Z,98064.00
2022-09-07T22:56:42.667Z,98068.78
2022-09-07T22:58:50.211Z,98057.19
2022-09-07T23:00:52.905Z,98053.56
2022-09-07T23:02:54.501Z,98060.31
2022-09-07T23:04:57.838Z,98047.19
2022-09-07T23:06:59.323Z,98047.53
2022-09-07T23:09:04.248Z,98045.91
2022-09-07T23:11:06.097Z,98045.47
2022-09-07T23:13:15.029Z,98049.41
2022-09-07T23:15:18.703Z,98042.19
2022-09-07T23:17:20.284Z,98051.72
2022-09-07T23:19:21.874Z,98041.72
2022-09-07T23:21:23.623Z,98036.50
2022-09-07T23:23:28.801Z,98032.56
2022-09-07T23:25:30.611Z,98026.50
2022-09-07T23:27:35.237Z,98026.50
2022-09-07T23:29:37.006Z,98036.06
2022-09-07T23:31:40.171Z,98028.50
2022-09-07T23:33:44.645Z,98024.47
2022-09-07T23:36:01.974Z,98014.47
2022-09-07T23:38:03.588Z,98013.66
2022-09-07T23:40:05.705Z,98020.03
2022-09-07T23:42:07.630Z,98023.19
2022-09-07T23:44:09.461Z,98014.84
2022-09-07T23:46:12.228Z,98014.00
2022-09-07T23:48:14.171Z,98011.56
2022-09-07T23:50:16.037Z,97997.28
2022-09-07T23:52:18.123Z,98000.41
2022-09-07T23:54:19.752Z,98001.59
2022-09-07T23:56:24.452Z,97992.06
2022-09-07T23:58:26.475Z,98008.00
